Time;durP1;ratioP1;P1;durP2;ratioP2;P2;SDS_P1;SDS_P2;PMS_P1;PMS_P2;Temp;Humidity;BMP_temperature;BMP_pressure;BME280_temperature;BME280_humidity;BME280_pressure;Samples;Min_cycle;Max_cycle;Signal;HPM_P1;HPM_P2
2021/07/11 00:00:48;;;;;;;9.35;8.55;;;;;;;18.60;100.00;100891.16;4925246;28;20245;-76
2021/07/11 00:03:17;;;;;;;10.63;9.63;;;;;;;18.54;100.00;100897.94;4992758;28;20181;-76
2021/07/11 00:05:47;;;;;;;9.40;8.52;;;;;;;18.50;100.00;100892.25;4976617;28;20217;-76
2021/07/11 00:08:15;;;;;;;9.38;8.48;;;;;;;18.31;100.00;100903.81;4942763;28;20648;-75
2021/07/11 00:10:45;;;;;;;9.63;8.75;;;;;;;18.38;100.00;100899.47;4940292;28;20226;-75
2021/07/11 00:13:15;;;;;;;9.48;8.63;;;;;;;18.63;100.00;100901.53;4989866;28;20190;-75
2021/07/11 00:15:46;;;;;;;9.30;8.50;;;;;;;18.62;100.00;100899.91;4960457;28;20221;-75
2021/07/11 00:18:14;;;;;;;9.40;8.55;;;;;;;18.46;100.00;100893.22;4945630;28;20230;-75
2021/07/11 00:20:42;;;;;;;9.32;8.52;;;;;;;18.46;100.00;100901.47;4940816;28;20284;-76
2021/07/11 00:23:07;;;;;;;9.43;8.63;;;;;;;18.55;100.00;100899.53;4955464;28;20178;-76
2021/07/11 00:25:35;;;;;;;8.90;8.18;;;;;;;18.60;100.00;100907.66;4959347;28;20225;-75
2021/07/11 00:28:01;;;;;;;10.07;9.10;;;;;;;18.78;100.00;100898.34;4980371;28;20666;-76
2021/07/11 00:30:26;;;;;;;9.93;8.95;;;;;;;18.74;100.00;100891.84;4924707;28;20266;-76
2021/07/11 00:32:54;;;;;;;10.07;9.07;;;;;;;18.77;100.00;100897.53;4929468;29;20234;-76
2021/07/11 00:35:21;;;;;;;9.45;8.73;;;;;;;18.76;100.00;100895.91;4937339;28;20201;-75
2021/07/11 00:37:49;;;;;;;9.70;8.82;;;;;;;18.79;100.00;100889.75;4957161;28;20202;-76
2021/07/11 00:40:16;;;;;;;9.32;8.52;;;;;;;18.69;100.00;100890.03;4959464;28;20202;-75
2021/07/11 00:42:45;;;;;;;9.27;8.48;;;;;;;18.66;100.00;100890.69;4951579;28;20179;-76
2021/07/11 00:45:11;;;;;;;9.32;8.50;;;;;;;18.64;100.00;100900.38;4940538;28;20265;-75
2021/07/11 00:47:41;;;;;;;9.80;8.90;;;;;;;18.63;100.00;100896.03;4932183;28;20530;-76
2021/07/11 00:50:14;;;;;;;9.48;8.70;;;;;;;18.62;100.00;100894.38;4944179;28;20738;-76
2021/07/11 00:52:43;;;;;;;9.55;8.60;;;;;;;18.58;100.00;100899.72;4938239;29;20665;-76
2021/07/11 00:55:13;;;;;;;10.52;9.52;;;;;;;18.49;100.00;100900.81;4923831;29;20245;-76
2021/07/11 00:57:44;;;;;;;10.77;9.88;;;;;;;18.36;100.00;100901.75;4936497;28;20691;-77
2021/07/11 01:00:11;;;;;;;10.25;9.35;;;;;;;18.36;100.00;100896.22;4993895;28;20217;-76
2021/07/11 01:03:07;;;;;;;10.15;9.27;;;;;;;18.41;100.00;100903.56;4973926;28;20206;-75
2021/07/11 01:05:33;;;;;;;10.15;9.15;;;;;;;18.33;100.00;100899.63;4958595;28;20710;-76
2021/07/11 01:08:11;;;;;;;10.55;9.65;;;;;;;18.41;100.00;100903.56;4927957;29;20206;-76
2021/07/11 01:10:46;;;;;;;10.38;9.48;;;;;;;18.37;100.00;100897.88;4939319;29;20258;-76
2021/07/11 01:13:14;;;;;;;11.27;10.20;;;;;;;18.34;100.00;100898.50;4964067;28;20182;-75
2021/07/11 01:15:52;;;;;;;10.82;9.93;;;;;;;18.23;100.00;100907.34;4944544;28;20718;-76
2021/07/11 01:18:22;;;;;;;12.07;10.98;;;;;;;18.15;100.00;100906.19;4944604;28;20210;-76
2021/07/11 01:20:57;;;;;;;12.30;11.20;;;;;;;18.24;100.00;100897.94;4944269;28;20234;-75
2021/07/11 01:23:34;;;;;;;12.95;11.85;;;;;;;18.21;100.00;100899.41;4940280;28;20563;-75
2021/07/11 01:26:07;;;;;;;13.50;12.00;;;;;;;18.27;100.00;100898.13;4964374;28;20765;-76
2021/07/11 01:28:38;;;;;;;12.00;10.90;;;;;;;18.31;100.00;100898.31;4942077;28;20182;-75
2021/07/11 01:31:08;;;;;;;11.85;10.68;;;;;;;18.41;100.00;100901.59;4916941;28;20233;-75
2021/07/11 01:33:38;;;;;;;12.88;11.68;;;;;;;18.44;100.00;100900.94;4965938;28;20205;-76
2021/07/11 01:36:06;;;;;;;12.95;11.63;;;;;;;18.41;100.00;100898.06;4934745;28;20268;-76
2021/07/11 01:38:34;;;;;;;13.13;11.93;;;;;;;18.36;100.00;100900.94;4959864;28;20337;-75
2021/07/11 01:41:01;;;;;;;13.30;12.00;;;;;;;18.32;100.00;100911.75;4953830;28;20244;-75
2021/07/11 01:43:30;;;;;;;13.02;11.65;;;;;;;18.27;100.00;100908.34;4930974;29;20193;-75
2021/07/11 01:45:58;;;;;;;13.48;12.27;;;;;;;18.34;100.00;100906.75;4974771;28;20226;-75
2021/07/11 01:48:24;;;;;;;12.93;11.70;;;;;;;18.33;100.00;100901.56;4942213;29;20265;-75
2021/07/11 01:50:55;;;;;;;13.45;12.25;;;;;;;18.33;100.00;100907.06;4924969;29;20231;-75
2021/07/11 01:53:29;;;;;;;13.30;12.07;;;;;;;18.22;100.00;100892.78;4930012;28;20241;-76
2021/07/11 01:55:56;;;;;;;13.43;12.13;;;;;;;18.21;100.00;100899.41;4943459;28;20222;-75
2021/07/11 01:58:22;;;;;;;12.73;11.52;;;;;;;18.28;100.00;100896.22;4946648;28;20205;-77
2021/07/11 02:00:51;;;;;;;12.15;11.05;;;;;;;18.32;100.00;100903.50;4962365;28;20233;-76
2021/07/11 02:03:18;;;;;;;13.45;12.07;;;;;;;18.33;100.00;100902.38;4961628;28;20190;-76
2021/07/11 02:05:59;;;;;;;12.85;11.65;;;;;;;18.34;100.00;100904.00;4944397;28;20606;-76
2021/07/11 02:08:31;;;;;;;12.95;11.75;;;;;;;18.33;100.00;100916.16;4978748;28;20593;-76
2021/07/11 02:11:01;;;;;;;13.20;11.90;;;;;;;18.36;100.00;100906.44;4978180;28;20228;-76
2021/07/11 02:13:46;;;;;;;13.20;12.00;;;;;;;18.36;100.00;100900.94;4945644;28;20789;-76
2021/07/11 02:16:27;;;;;;;12.95;11.75;;;;;;;18.33;100.00;100904.31;4928113;28;20747;-76
2021/07/11 02:18:58;;;;;;;13.55;12.32;;;;;;;18.32;100.00;100906.25;4918674;28;20252;-76
2021/07/11 02:21:27;;;;;;;12.88;11.73;;;;;;;18.31;100.00;100901.06;4962672;28;20260;-77
2021/07/11 02:23:54;;;;;;;13.73;12.43;;;;;;;18.25;100.00;100905.91;4963082;28;20177;-75
2021/07/11 02:26:23;;;;;;;13.85;12.43;;;;;;;18.15;100.00;100900.69;4962107;28;20223;-75
2021/07/11 02:28:53;;;;;;;13.23;11.93;;;;;;;18.15;100.00;100900.69;4930785;28;20181;-75
2021/07/11 02:31:21;;;;;;;13.65;12.45;;;;;;;18.19;100.00;100900.84;4947034;28;20228;-75
2021/07/11 02:33:49;;;;;;;12.82;11.63;;;;;;;18.18;100.00;100904.72;4960094;28;20190;-77
2021/07/11 02:36:20;;;;;;;13.57;12.18;;;;;;;18.21;100.00;100896.66;4927696;28;20214;-76
2021/07/11 02:38:54;;;;;;;14.02;12.73;;;;;;;18.20;100.00;100896.97;4929043;28;20250;-75
2021/07/11 02:41:28;;;;;;;13.68;12.32;;;;;;;18.21;100.00;100899.41;4961701;28;20234;-76
2021/07/11 02:44:03;;;;;;;12.90;11.73;;;;;;;18.18;100.00;100902.78;4961897;28;20182;-76
2021/07/11 02:46:36;;;;;;;13.15;11.80;;;;;;;18.19;100.00;100895.34;4943287;28;20614;-77
2021/07/11 02:49:07;;;;;;;13.27;11.95;;;;;;;18.13;100.00;100886.44;4945501;28;20170;-75
2021/07/11 02:51:51;;;;;;;14.77;12.05;;;;;;;18.15;100.00;100897.94;4932234;28;20224;-75
2021/07/11 02:54:21;;;;;;;14.45;12.95;;;;;;;18.17;100.00;100895.66;4924276;29;20241;-76
2021/07/11 02:56:56;;;;;;;14.05;12.73;;;;;;;18.20;100.00;100880.47;4954556;29;20310;-76
2021/07/11 02:59:22;;;;;;;14.32;12.90;;;;;;;18.18;100.00;100883.53;4942527;28;20309;-77
2021/07/11 03:01:52;;;;;;;13.25;11.95;;;;;;;18.10;100.00;100882.69;4941894;28;20711;-76
2021/07/11 03:04:22;;;;;;;14.07;12.68;;;;;;;18.19;100.00;100884.34;4945906;28;20193;-76
2021/07/11 03:06:50;;;;;;;13.68;12.32;;;;;;;18.02;100.00;100884.25;4929374;28;20773;-75
2021/07/11 03:09:18;;;;;;;14.45;13.15;;;;;;;18.05;100.00;100882.78;4959339;28;20182;-76
2021/07/11 03:11:49;;;;;;;13.60;12.38;;;;;;;17.99;100.00;100886.81;4943203;28;20313;-76
2021/07/11 03:14:15;;;;;;;14.07;12.73;;;;;;;18.01;100.00;100888.09;4928205;28;20186;-76
2021/07/11 03:16:58;;;;;;;13.65;12.25;;;;;;;17.94;100.00;100886.94;4948040;28;20225;-76
2021/07/11 03:19:27;;;;;;;13.80;12.50;;;;;;;17.99;100.00;100884.88;4945515;28;20205;-75
2021/07/11 03:21:57;;;;;;;14.23;12.93;;;;;;;17.95;100.00;100874.81;4912220;28;20230;-77
2021/07/11 03:24:27;;;;;;;14.98;13.32;;;;;;;18.08;100.00;100880.22;4926534;28;20248;-76
2021/07/11 03:26:58;;;;;;;14.10;12.77;;;;;;;18.18;100.00;100878.03;4961835;28;20247;-75
2021/07/11 03:30:01;;;;;;;13.90;12.60;;;;;;;18.23;100.00;100880.66;4958869;28;20648;-76
2021/07/11 03:32:31;;;;;;;14.10;12.70;;;;;;;18.23;100.00;100891.66;4927818;29;20227;-76
2021/07/11 03:35:00;;;;;;;13.45;12.15;;;;;;;18.28;100.00;100894.25;4930119;28;20202;-76
2021/07/11 03:37:33;;;;;;;13.27;11.98;;;;;;;18.28;100.00;100905.28;4961639;28;20221;-77
2021/07/11 03:39:59;;;;;;;13.32;12.13;;;;;;;18.25;100.00;100900.38;4959930;28;20880;-76
2021/07/11 03:42:28;;;;;;;13.10;11.80;;;;;;;18.30;100.00;100894.75;4943743;28;20268;-76
2021/07/11 03:44:59;;;;;;;13.55;12.05;;;;;;;18.37;100.00;100892.38;4927335;28;20567;-77
2021/07/11 03:47:26;;;;;;;13.07;11.77;;;;;;;18.39;100.00;100898.38;4942733;28;20273;-77
2021/07/11 03:49:53;;;;;;;12.57;10.77;;;;;;;18.43;100.00;100899.34;4957867;28;20202;-77
2021/07/11 03:52:24;;;;;;;13.48;12.05;;;;;;;18.49;100.00;100903.56;4942115;28;20237;-77
2021/07/11 03:54:49;;;;;;;13.00;11.77;;;;;;;18.48;100.00;100901.13;4911180;28;20190;-76
2021/07/11 03:57:17;;;;;;;14.05;12.57;;;;;;;18.50;100.00;100900.50;4941990;28;20222;-74
2021/07/11 03:59:46;;;;;;;12.57;11.25;;;;;;;18.54;100.00;100898.75;4941764;28;20210;-78
2021/07/11 04:02:12;;;;;;;13.30;12.00;;;;;;;18.47;100.00;100897.56;4941997;28;20330;-74
2021/07/11 04:04:40;;;;;;;12.75;11.45;;;;;;;18.54;100.00;100897.94;4925918;28;20190;-75
2021/07/11 04:07:05;;;;;;;12.55;11.40;;;;;;;18.59;100.00;100901.34;4925521;28;21101;-76
2021/07/11 04:09:35;;;;;;;11.90;10.88;;;;;;;18.64;100.00;100894.88;4925541;28;20214;-76
2021/07/11 04:12:01;;;;;;;11.90;10.90;;;;;;;18.69;100.00;100894.75;4942343;28;20253;-75
2021/07/11 04:14:29;;;;;;;12.32;11.13;;;;;;;18.76;100.00;100895.09;4926469;28;20210;-76
2021/07/11 04:16:56;;;;;;;11.90;10.70;;;;;;;18.76;100.00;100895.91;4941500;28;20692;-77
2021/07/11 04:19:31;;;;;;;11.68;10.68;;;;;;;18.83;100.00;100892.66;4941819;28;20210;-75
2021/07/11 04:21:59;;;;;;;12.32;11.23;;;;;;;18.85;100.00;100895.94;4941563;28;20699;-77
2021/07/11 04:24:24;;;;;;;11.18;10.07;;;;;;;18.92;100.00;100894.31;4942388;28;20182;-74
2021/07/11 04:26:54;;;;;;;11.50;10.30;;;;;;;18.99;100.00;100892.75;4941163;28;20222;-75
2021/07/11 04:29:20;;;;;;;11.45;10.32;;;;;;;19.04;100.00;100898.09;4942095;28;20209;-75
2021/07/11 04:31:48;;;;;;;12.38;11.18;;;;;;;19.10;100.00;100905.09;4945419;28;20241;-75
2021/07/11 04:34:27;;;;;;;11.45;10.25;;;;;;;19.14;100.00;100906.06;4930713;28;20663;-75
2021/07/11 04:36:56;;;;;;;12.40;11.10;;;;;;;18.98;100.00;100893.88;4945680;28;20225;-76
2021/07/11 04:39:22;;;;;;;11.68;10.60;;;;;;;18.90;100.00;100905.66;4929752;28;20296;-75
2021/07/11 04:41:53;;;;;;;12.35;11.15;;;;;;;19.01;100.00;100898.75;4945205;28;20268;-76
2021/07/11 04:44:22;;;;;;;11.48;10.38;;;;;;;19.05;100.00;100901.66;4945875;28;20530;-76
2021/07/11 04:46:48;;;;;;;12.05;10.93;;;;;;;19.17;100.00;100899.88;4957720;29;20226;-76
2021/07/11 04:49:18;;;;;;;11.93;10.73;;;;;;;19.19;100.00;100899.56;4942149;29;20206;-75
2021/07/11 04:51:48;;;;;;;11.93;10.73;;;;;;;19.27;100.00;100902.34;4934667;28;20595;-76
2021/07/11 04:54:16;;;;;;;11.50;10.48;;;;;;;19.32;100.00;100902.16;4961301;28;20712;-76
2021/07/11 04:56:44;;;;;;;11.15;10.20;;;;;;;19.41;100.00;100903.81;4945846;28;20244;-77
2021/07/11 04:59:14;;;;;;;11.70;10.60;;;;;;;19.49;100.00;100893.91;4944963;28;20214;-77
2021/07/11 05:01:47;;;;;;;11.43;10.35;;;;;;;19.51;100.00;100895.22;4978035;28;20226;-79
2021/07/11 05:04:12;;;;;;;11.23;10.25;;;;;;;19.54;100.00;100902.84;4913902;28;20183;-76
2021/07/11 05:06:40;;;;;;;12.00;10.85;;;;;;;19.44;100.00;100908.66;4957799;29;20215;-77
2021/07/11 05:09:08;;;;;;;11.18;10.05;;;;;;;19.61;100.00;100907.84;4941661;29;20183;-75
2021/07/11 05:11:37;;;;;;;11.90;10.75;;;;;;;19.68;100.00;100911.72;4929084;28;20302;-76
2021/07/11 05:14:03;;;;;;;11.57;10.48;;;;;;;19.76;100.00;100914.50;4944782;28;20181;-76
2021/07/11 05:16:36;;;;;;;11.93;10.82;;;;;;;19.62;100.00;100915.00;4928781;28;20218;-75
2021/07/11 05:19:04;;;;;;;12.02;10.82;;;;;;;19.61;100.00;100913.34;4928941;28;20221;-75
2021/07/11 05:21:30;;;;;;;11.95;10.75;;;;;;;19.74;100.00;100907.66;4945222;28;20234;-76
2021/07/11 05:24:00;;;;;;;12.50;11.20;;;;;;;19.87;100.00;100914.97;4946987;28;20233;-77
2021/07/11 05:26:29;;;;;;;11.80;10.70;;;;;;;19.88;100.00;100909.13;4960829;28;20234;-75
2021/07/11 05:28:54;;;;;;;11.75;10.75;;;;;;;19.93;100.00;100900.69;4943753;28;20191;-76
2021/07/11 05:31:24;;;;;;;11.20;10.23;;;;;;;19.89;100.00;100905.25;4943860;28;20233;-77
2021/07/11 05:33:50;;;;;;;12.05;10.85;;;;;;;20.06;100.00;100909.94;4929192;28;20555;-76
2021/07/11 05:36:18;;;;;;;11.40;10.40;;;;;;;20.18;100.00;100921.88;4928062;28;20214;-76
2021/07/11 05:38:44;;;;;;;12.02;10.80;;;;;;;20.23;100.00;100922.53;4943694;28;20284;-77
2021/07/11 05:41:12;;;;;;;11.73;10.60;;;;;;;20.31;100.00;100923.63;4942686;28;20245;-77
2021/07/11 05:43:43;;;;;;;11.00;9.82;;;;;;;20.42;100.00;100922.13;4944086;28;20194;-76
2021/07/11 05:46:13;;;;;;;10.68;9.68;;;;;;;20.43;100.00;100923.78;4912795;28;20233;-75
2021/07/11 05:48:39;;;;;;;10.45;9.52;;;;;;;20.50;100.00;100928.44;4936168;29;20531;-75
2021/07/11 05:51:12;;;;;;;10.43;9.52;;;;;;;20.63;100.00;100923.88;4923792;29;20246;-75
2021/07/11 05:53:37;;;;;;;11.52;10.40;;;;;;;20.76;100.00;100918.13;4935520;29;20197;-75
2021/07/11 05:56:05;;;;;;;10.00;9.10;;;;;;;20.78;100.00;100923.31;4923936;29;20291;-75
2021/07/11 05:58:33;;;;;;;9.65;8.85;;;;;;;20.69;100.00;100926.09;4942314;28;20206;-76
2021/07/11 06:01:02;;;;;;;10.57;9.13;;;;;;;20.77;100.00;100917.00;4943023;28;20223;-75
2021/07/11 06:03:27;;;;;;;9.60;8.80;;;;;;;20.71;100.00;100923.81;4942333;28;20205;-75
2021/07/11 06:05:53;;;;;;;9.85;8.98;;;;;;;20.98;100.00;100923.38;4926747;28;20225;-76
2021/07/11 06:08:20;;;;;;;9.68;8.77;;;;;;;20.99;100.00;100919.47;4942110;28;20198;-76
2021/07/11 06:10:52;;;;;;;10.18;9.18;;;;;;;21.02;100.00;100924.31;4958715;28;20222;-76
2021/07/11 06:13:19;;;;;;;9.52;8.60;;;;;;;21.05;100.00;100918.94;4943487;28;20206;-76
2021/07/11 06:15:47;;;;;;;9.85;8.95;;;;;;;21.13;100.00;100925.53;4943089;28;20222;-76
2021/07/11 06:18:15;;;;;;;9.95;8.95;;;;;;;21.06;100.00;100925.25;4955339;29;20375;-76
2021/07/11 06:20:43;;;;;;;9.75;8.85;;;;;;;21.36;100.00;100931.22;4923809;29;20326;-77
2021/07/11 06:23:11;;;;;;;10.05;9.10;;;;;;;21.54;100.00;100934.69;4946157;28;20716;-76
2021/07/11 06:25:39;;;;;;;9.25;8.45;;;;;;;21.38;100.00;100934.47;4943138;28;20323;-77
2021/07/11 06:28:07;;;;;;;9.63;8.82;;;;;;;21.55;100.00;100926.06;4926767;28;20198;-76
2021/07/11 06:30:33;;;;;;;9.90;9.00;;;;;;;21.77;100.00;100931.25;4942645;28;20226;-78
2021/07/11 06:33:01;;;;;;;9.95;8.85;;;;;;;21.71;100.00;100927.88;4924025;29;20226;-75
2021/07/11 06:35:28;;;;;;;9.55;8.75;;;;;;;21.71;100.00;100929.84;4939142;28;20234;-75
2021/07/11 06:37:56;;;;;;;9.43;8.60;;;;;;;21.90;100.00;100930.16;4942933;28;20278;-75
2021/07/11 06:40:24;;;;;;;9.50;8.70;;;;;;;22.02;100.00;100934.56;4942390;28;20769;-76
2021/07/11 06:42:50;;;;;;;9.38;8.52;;;;;;;22.04;100.00;100923.16;4942445;28;20668;-77
2021/07/11 06:45:23;;;;;;;8.43;7.68;;;;;;;21.71;100.00;100927.88;4941935;28;20700;-76
2021/07/11 06:47:50;;;;;;;8.57;7.88;;;;;;;21.65;100.00;100940.31;4958203;28;20265;-76
2021/07/11 06:50:19;;;;;;;8.55;7.75;;;;;;;21.91;100.00;100920.72;4942482;28;20683;-75
2021/07/11 06:52:51;;;;;;;8.05;7.32;;;;;;;22.24;100.00;100914.84;4941445;28;20190;-76
2021/07/11 06:55:17;;;;;;;8.02;7.30;;;;;;;22.61;100.00;100931.16;4942201;28;20269;-77
2021/07/11 06:57:42;;;;;;;7.60;6.90;;;;;;;22.89;98.33;100921.88;4957573;28;20194;-77
2021/07/11 07:00:09;;;;;;;9.50;7.53;;;;;;;22.99;97.82;100926.94;4939998;28;20220;-75
2021/07/11 07:02:35;;;;;;;7.70;6.97;;;;;;;22.69;93.98;100929.44;4957107;28;20190;-76
2021/07/11 07:05:00;;;;;;;6.93;6.32;;;;;;;22.47;95.59;100918.78;4938799;28;20194;-77
2021/07/11 07:07:29;;;;;;;7.20;6.60;;;;;;;22.97;96.14;100922.91;4939536;28;20222;-75
2021/07/11 07:09:54;;;;;;;7.00;6.40;;;;;;;23.07;94.22;100922.44;4941678;28;20194;-77
2021/07/11 07:12:20;;;;;;;6.60;5.90;;;;;;;23.05;93.59;100921.97;4925054;28;20265;-76
2021/07/11 07:14:53;;;;;;;5.78;5.28;;;;;;;22.97;89.72;100922.91;4956941;28;20218;-77
2021/07/11 07:17:21;;;;;;;6.20;5.57;;;;;;;22.94;90.00;100932.72;4940844;28;20218;-80
2021/07/11 07:19:46;;;;;;;6.72;6.13;;;;;;;23.32;87.05;100925.63;4932450;28;20213;-76
2021/07/11 07:22:12;;;;;;;6.22;5.72;;;;;;;23.36;88.61;100914.63;4933649;28;20224;-75
2021/07/11 07:24:37;;;;;;;6.18;5.68;;;;;;;23.67;86.06;100921.97;4949708;28;20186;-77
2021/07/11 07:27:07;;;;;;;6.35;5.75;;;;;;;23.64;85.73;100916.31;4925472;28;20861;-77
2021/07/11 07:29:38;;;;;;;6.13;5.53;;;;;;;23.68;84.59;100918.03;4926424;28;20270;-76
2021/07/11 07:32:04;;;;;;;6.32;5.82;;;;;;;23.49;85.06;100930.09;4929615;29;20361;-76
2021/07/11 07:34:30;;;;;;;6.47;5.97;;;;;;;23.85;85.98;100914.16;4945892;28;20179;-77
2021/07/11 07:37:00;;;;;;;7.18;6.13;;;;;;;23.59;85.05;100924.91;4940416;28;20230;-78
2021/07/11 07:39:29;;;;;;;7.25;5.88;;;;;;;23.65;85.63;100924.28;4926743;28;20691;-77
2021/07/11 07:41:56;;;;;;;6.60;6.10;;;;;;;23.65;85.09;100918.75;4961955;28;20313;-77
2021/07/11 07:44:22;;;;;;;6.68;6.07;;;;;;;24.25;84.42;100921.22;4940630;28;20570;-77
2021/07/11 07:46:48;;;;;;;6.80;6.20;;;;;;;24.36;82.33;100912.88;4924844;28;20234;-76
2021/07/11 07:49:14;;;;;;;6.93;6.32;;;;;;;24.35;83.08;100906.88;4921256;29;20183;-77
2021/07/11 07:51:40;;;;;;;7.43;6.70;;;;;;;24.14;81.10;100915.41;4923789;29;20232;-77
2021/07/11 07:54:08;;;;;;;7.43;5.95;;;;;;;24.81;80.63;100911.25;4956348;28;20696;-78
2021/07/11 07:56:34;;;;;;;6.50;5.90;;;;;;;25.08;79.12;100915.13;4958363;28;20253;-77
2021/07/11 07:58:59;;;;;;;6.93;6.22;;;;;;;24.92;78.49;100905.94;4941284;28;20206;-77
2021/07/11 08:01:25;;;;;;;6.57;6.00;;;;;;;24.88;77.70;100913.41;4921808;28;20226;-77
2021/07/11 08:03:52;;;;;;;16.50;14.15;;;;;;;24.38;77.84;100904.97;4953504;28;20182;-78
2021/07/11 08:06:20;;;;;;;6.97;6.40;;;;;;;24.90;75.47;100911.06;4937603;28;20226;-76
2021/07/11 08:08:48;;;;;;;6.88;6.28;;;;;;;24.87;80.16;100912.59;4939019;28;20644;-78
2021/07/11 08:11:13;;;;;;;6.72;6.13;;;;;;;24.63;79.69;100911.97;4936579;29;20273;-78
2021/07/11 08:13:44;;;;;;;6.25;5.68;;;;;;;24.55;79.13;100914.94;4958862;28;20178;-78
2021/07/11 08:16:11;;;;;;;6.95;5.70;;;;;;;25.08;77.48;100910.34;4928481;28;20214;-79
2021/07/11 08:18:40;;;;;;;6.40;5.80;;;;;;;25.18;78.48;100907.00;4974889;28;20214;-78
2021/07/11 08:21:08;;;;;;;6.15;5.68;;;;;;;25.29;79.44;100910.81;4956416;28;20226;-76
2021/07/11 08:23:33;;;;;;;6.00;5.53;;;;;;;25.48;75.24;100906.09;4921300;29;20191;-77
2021/07/11 08:26:04;;;;;;;6.20;5.70;;;;;;;25.67;75.40;100911.72;4914258;29;20273;-76
2021/07/11 08:28:32;;;;;;;5.78;5.28;;;;;;;25.29;72.45;100913.59;4938441;29;20632;-78
2021/07/11 08:30:58;;;;;;;5.93;5.30;;;;;;;25.63;70.99;100908.06;4948650;28;20229;-74
2021/07/11 08:33:26;;;;;;;6.60;5.88;;;;;;;25.63;71.24;100902.50;4935721;29;20194;-75
2021/07/11 08:35:54;;;;;;;6.28;5.70;;;;;;;25.56;69.88;100907.88;4931099;28;20225;-73
2021/07/11 08:38:22;;;;;;;5.40;5.00;;;;;;;25.62;74.08;100906.44;4930210;28;20221;-74
2021/07/11 08:40:49;;;;;;;6.10;5.60;;;;;;;25.51;72.29;100919.28;4935943;28;20222;-77
2021/07/11 08:43:22;;;;;;;6.50;5.82;;;;;;;25.66;71.89;100919.25;4923142;28;20273;-73
2021/07/11 08:45:48;;;;;;;5.75;5.30;;;;;;;25.62;72.14;100923.13;4935292;28;20233;-73
2021/07/11 08:48:16;;;;;;;5.63;5.15;;;;;;;25.71;69.33;100923.72;4954663;28;20197;-75
2021/07/11 08:50:41;;;;;;;5.85;5.35;;;;;;;25.83;73.67;100920.81;4913337;28;20222;-76
2021/07/11 08:53:13;;;;;;;5.32;4.93;;;;;;;25.79;70.09;100917.16;4955469;28;20664;-76
2021/07/11 08:55:39;;;;;;;6.20;5.68;;;;;;;25.37;71.24;100923.75;4939435;28;20773;-75
2021/07/11 08:58:07;;;;;;;5.90;5.40;;;;;;;25.36;72.42;100922.13;4955010;28;20190;-75
2021/07/11 09:00:36;;;;;;;5.68;5.28;;;;;;;25.81;69.65;100920.38;4949170;28;20230;-76
2021/07/11 09:03:09;;;;;;;8.90;8.07;;;;;;;26.08;68.60;100906.19;4930932;28;20544;-76
2021/07/11 09:05:41;;;;;;;9.20;8.40;;;;;;;26.13;71.28;100911.47;4937370;28;20226;-76
2021/07/11 09:08:08;;;;;;;6.13;5.53;;;;;;;26.66;69.55;100914.06;4939031;28;20187;-76
2021/07/11 09:10:40;;;;;;;6.07;5.53;;;;;;;26.31;66.19;100918.22;4939233;28;20317;-75
2021/07/11 09:13:10;;;;;;;5.25;4.85;;;;;;;26.68;63.62;100920.88;4938545;28;20688;-76
2021/07/11 09:15:39;;;;;;;5.50;5.00;;;;;;;26.90;60.86;100914.50;4955282;28;20226;-71
2021/07/11 09:18:04;;;;;;;5.20;4.80;;;;;;;27.03;60.68;100910.31;4925871;28;20214;-72
2021/07/11 09:20:33;;;;;;;7.18;4.90;;;;;;;27.17;61.73;100909.34;4925954;28;20718;-72
2021/07/11 09:23:02;;;;;;;5.25;4.85;;;;;;;27.00;61.12;100911.91;4942257;28;20186;-71
2021/07/11 09:25:28;;;;;;;5.50;5.00;;;;;;;27.27;62.19;100905.13;4926303;28;20304;-71
2021/07/11 09:27:56;;;;;;;4.80;4.45;;;;;;;27.48;58.15;100904.25;4973957;28;20230;-71
2021/07/11 09:30:22;;;;;;;4.47;4.15;;;;;;;27.46;58.67;100908.63;4942626;28;20242;-71
2021/07/11 09:32:55;;;;;;;4.93;4.60;;;;;;;27.26;60.02;100906.31;4957570;28;20210;-74
2021/07/11 09:35:24;;;;;;;5.10;4.80;;;;;;;27.34;61.97;100906.00;4941503;28;20726;-77
2021/07/11 09:37:55;;;;;;;5.22;4.47;;;;;;;27.59;57.84;100901.63;4929521;28;20213;-76
2021/07/11 09:40:25;;;;;;;4.85;4.45;;;;;;;27.18;57.12;100899.03;4952861;28;20245;-77
2021/07/11 09:42:55;;;;;;;4.70;4.30;;;;;;;26.93;58.81;100903.41;4935463;28;20197;-76
2021/07/11 09:45:26;;;;;;;5.22;4.82;;;;;;;26.73;60.61;100899.06;4938543;28;20189;-74
2021/07/11 09:48:04;;;;;;;5.55;4.47;;;;;;;26.90;63.28;100898.56;4942368;28;20182;-73
2021/07/11 09:50:29;;;;;;;5.15;4.75;;;;;;;27.00;63.20;100894.34;4941037;28;20233;-76
2021/07/11 09:52:56;;;;;;;5.13;4.72;;;;;;;27.27;60.68;100902.31;4911776;28;20198;-73
2021/07/11 09:55:25;;;;;;;4.63;4.22;;;;;;;27.13;59.09;100905.72;4947964;28;20209;-75
2021/07/11 09:57:58;;;;;;;4.40;4.10;;;;;;;27.15;58.73;100896.97;4941493;28;20582;-73
2021/07/11 10:00:30;;;;;;;5.10;4.70;;;;;;;27.59;55.55;100896.84;4947789;29;20302;-74
2021/07/11 10:02:59;;;;;;;4.97;4.05;;;;;;;28.01;56.57;100900.16;4955677;28;20216;-74
2021/07/11 10:05:25;;;;;;;4.80;4.30;;;;;;;27.88;55.87;100912.78;4940040;28;20206;-74
2021/07/11 10:07:53;;;;;;;4.80;4.40;;;;;;;27.53;56.07;100898.34;4941162;28;20713;-77
2021/07/11 10:10:23;;;;;;;5.30;4.45;;;;;;;28.00;57.81;100898.53;4923134;28;20289;-75
2021/07/11 10:12:49;;;;;;;4.32;3.92;;;;;;;28.03;55.25;100907.00;4938027;28;20190;-75
2021/07/11 10:15:19;;;;;;;4.72;3.90;;;;;;;28.20;52.21;100897.19;4968555;28;20590;-75
2021/07/11 10:17:57;;;;;;;4.55;4.25;;;;;;;27.78;50.98;100891.06;4950711;28;20202;-74
2021/07/11 10:20:32;;;;;;;4.70;3.80;;;;;;;28.40;52.03;100897.41;4939307;28;20594;-75
2021/07/11 10:23:00;;;;;;;5.68;4.25;;;;;;;28.50;51.97;100902.31;4928354;29;20186;-75
2021/07/11 10:25:29;;;;;;;21.90;19.88;;;;;;;28.91;50.63;100895.50;4906306;29;21797;-75
2021/07/11 10:28:08;;;;;;;10.40;9.38;;;;;;;28.87;51.66;100901.06;4929092;28;20163;-75
2021/07/11 10:30:42;;;;;;;7.10;6.13;;;;;;;28.74;50.96;100890.56;4950822;28;20234;-77
2021/07/11 10:33:13;;;;;;;4.45;4.05;;;;;;;28.77;50.86;100895.38;4926356;28;20190;-74
2021/07/11 10:36:04;;;;;;;4.32;3.92;;;;;;;28.31;51.16;100899.72;4940217;28;20818;-76
2021/07/11 10:38:44;;;;;;;4.53;4.13;;;;;;;27.94;54.15;100900.84;4928892;28;20210;-76
2021/07/11 10:41:10;;;;;;;4.53;4.07;;;;;;;27.79;54.22;100898.28;4912056;29;20249;-75
2021/07/11 10:43:36;;;;;;;4.25;3.85;;;;;;;27.77;54.28;100895.06;4969878;28;20424;-74
2021/07/11 10:46:03;;;;;;;4.70;4.30;;;;;;;28.21;55.12;100907.19;4942600;28;20853;-75
2021/07/11 10:48:30;;;;;;;4.50;4.10;;;;;;;28.66;56.20;100905.66;4938723;28;20214;-76
2021/07/11 10:50:56;;;;;;;5.10;4.60;;;;;;;28.64;53.58;100901.66;4924300;28;20236;-75
2021/07/11 10:53:22;;;;;;;4.68;4.35;;;;;;;28.72;52.81;100909.72;4956429;28;20190;-76
2021/07/11 10:55:47;;;;;;;4.57;4.22;;;;;;;28.82;54.07;100898.59;4940184;28;20313;-74
2021/07/11 10:58:19;;;;;;;4.28;3.90;;;;;;;29.03;51.66;100897.97;4925410;28;20293;-76
2021/07/11 11:00:46;;;;;;;4.20;3.90;;;;;;;28.87;52.54;100897.47;4940017;28;20843;-76
2021/07/11 11:03:19;;;;;;;4.20;3.90;;;;;;;28.79;49.08;100892.97;4937192;29;20241;-75
2021/07/11 11:05:51;;;;;;;4.20;3.90;;;;;;;29.06;49.73;100887.63;4952628;28;20234;-76
2021/07/11 11:08:22;;;;;;;4.10;3.70;;;;;;;29.12;52.51;100894.44;4962557;28;20192;-76
2021/07/11 11:10:49;;;;;;;4.20;3.80;;;;;;;29.51;48.37;100892.72;4955879;28;20610;-76
2021/07/11 11:13:20;;;;;;;3.72;3.42;;;;;;;29.61;45.79;100903.16;4943368;28;20723;-76
2021/07/11 11:15:50;;;;;;;3.38;2.97;;;;;;;29.91;43.86;100907.34;4954712;28;20228;-76
2021/07/11 11:18:23;;;;;;;3.38;3.13;;;;;;;29.84;43.67;100895.31;4936220;29;20226;-78
2021/07/11 11:20:55;;;;;;;3.30;3.10;;;;;;;30.42;43.81;100894.66;4940049;28;20258;-75
2021/07/11 11:23:23;;;;;;;3.30;3.00;;;;;;;30.48;43.22;100887.47;4950366;28;20269;-76